ADDS METAR Data INFO
IDs: Format: Raw Decoded Include TAF

Data at: 1723 UTC 25 Feb 2018

KEKY 251721Z AUTO 12009KT 10SM -RA FEW003 SCT035 OVC090 12/11 A3010 RMK AO2 P0000
KEKY 251656Z AUTO 12009KT 10SM -RA BKN003 OVC100 12/11 A3012 RMK AO2 SLP218 P0001 T01170111
KEKY 251637Z AUTO 13008KT 10SM -RA BKN003 BKN055 OVC090 11/11 A3014 RMK AO2 P0000
KEKY 251556Z AUTO 17005KT 10SM -RA SCT003 SCT060 OVC075 11/11 A3019 RMK AO2 SLP241 P0003 T01060106
KEKY 251542Z AUTO 18004KT 10SM -RA BKN003 OVC070 11/11 A3020 RMK AO2 P0002
KEKY 251529Z AUTO 15006KT 10SM -RA SCT003 BKN070 OVC080 11/11 A3019 RMK AO2 P0002
KEKY 251456Z AUTO 00000KT 10SM -RA OVC080 11/11 A3018 RMK AO2 SLP236 P0000 60028 T01060106 53019
KEKY 251356Z AUTO 00000KT 10SM -RA FEW005 BKN060 OVC080 11/10 A3014 RMK AO2 SLP224 P0008 T01060100
KEKY 251347Z AUTO 09004KT 10SM -RA FEW003 BKN060 OVC080 11/10 A3012 RMK AO2 P0007
KEKY 251322Z AUTO VRB03KT 5SM -RA BR SCT009 BKN026 OVC060 11/10 A3014 RMK AO2 P0006
KEKY 251308Z AUTO 33007KT 6SM RA BR BKN003 BKN009 OVC065 11/10 A3013 RMK AO2 CIG 002V006 P0005
KEKY 251256Z AUTO 36007KT 2 1/2SM +RA BR OVC003 11/11 A3012 RMK AO2 VIS 1 3/4V5 CIG 002V007 SLP217 P0020 T01060106
KEKY 251248Z AUTO 34006KT 2 1/2SM +RA BR OVC003 11/11 A3012 RMK AO2 CIG 002V007 P0014
KEKY 251236Z AUTO 33004KT 4SM RA BR BKN005 OVC047 11/11 A3012 RMK AO2 CIG 003V011 P0006
KEKY 251224Z AUTO 32005KT 3SM -RA BR BKN007 BKN014 OVC047 11/11 A3011 RMK AO2 CIG 004V010 P0002
KEKY 251156Z AUTO 33010KT 6SM -RA BR FEW009 BKN035 OVC045 11/11 A3010 RMK AO2 SLP207 P0008 60017 70027 T01060106 10206 20106 51041
KEKY 251152Z AUTO 33008G16KT 6SM -RA BR FEW007 BKN035 OVC045 11/11 A3010 RMK AO2 P0008
KEKY 251141Z AUTO 34013G17KT 7SM RA FEW005 BKN009 OVC043 11/11 A3010 RMK AO2 CIG 007V010 P0007
KEKY 251117Z AUTO 35014G23KT 6SM RA BR OVC005 13/12 A3007 RMK AO2 CIG 003V009 P0002
KEKY 251056Z AUTO 34015G21KT 9SM -RA FEW003 BKN007 OVC039 13/13 A3005 RMK AO2 RAB14 CIG 005V010 SLP190 P0009 T01330133
KEKY 251049Z AUTO 33013G19KT 10SM -RA BKN005 BKN012 OVC041 14/13 A3004 RMK AO2 RAB14 CIG 003V008 P0009
KEKY 251027Z AUTO 33011KT 6SM -RA BR BKN007 OVC012 15/14 A3003 RMK AO2 RAB14 CIG 005V009 P0001
KEKY 250956Z AUTO 20010G15KT 10SM OVC012 20/19 A2997 RMK AO2 SLP162 T02000189
KEKY 250856Z AUTO 19010G17KT 10SM BKN014 OVC019 20/19 A2999 RMK AO2 SLP166 60000 T02000189 58011
KEKY 250756Z AUTO 20009G17KT 10SM OVC014 20/19 A3001 RMK AO2 RAB25E36 SLP174 P0000 T02000189
KEKY 250656Z AUTO 20012G23KT 10SM OVC014 20/19 A3002 RMK AO2 SLP176 T02000189
KEKY 250626Z AUTO 20014G19KT 10SM OVC014 20/18 A3002 RMK AO2
KEKY 250556Z AUTO 19010G17KT 10SM BKN016 BKN090 19/18 A3002 RMK AO2 SLP178 60008 T01940183 10228 20183 402440183 50001
KEKY 250526Z AUTO 18009KT 10SM FEW020 19/18 A3002 RMK AO2
KEKY 250456Z AUTO 18006KT 10SM BKN020 19/18 A3003 RMK AO2 SLP179 T01940178
KEKY 250356Z AUTO 18007KT 10SM CLR 19/17 A3003 RMK AO2 SLP182 T01940172
KEKY 250256Z AUTO 19007KT 10SM CLR 19/18 A3002 RMK AO2 SLP178 60008 T01940178 51007
KEKY 250156Z AUTO 18007KT 10SM OVC095 19/18 A3001 RMK AO2 SLP176 T01890183
KEKY 250056Z AUTO 19004KT 10SM BKN080 OVC090 19/18 A3001 RMK AO2 PK WND 21031/0005 RAE32 SLP177 P0008 T01890178
KEKY 242356Z AUTO 22006KT 10SM -RA FEW042 BKN055 OVC090 23/17 A3000 RMK AO2 RAB52 SLP170 P0000 60002 T02280172 10244 20194 55002
KEKY 242256Z AUTO 18005KT 10SM FEW047 22/18 A2998 RMK AO2 SLP165 T02220183
KEKY 242156Z AUTO 00000KT 10SM FEW070 BKN110 21/19 A2999 RMK AO2 RAB15E41 SLP168 P0002 T02060194
KEKY 242056Z AUTO VRB06KT 10SM FEW043 BKN065 OVC080 24/17 A3001 RMK AO2 SLP171 60000 T02390172 56037
KEKY 241956Z AUTO 17005KT 10SM FEW036 BKN050 OVC075 22/18 A3004 RMK AO2 RAB34E48 SLP183 P0000 T02170183
KEKY 241908Z AUTO 20008KT 10SM SCT027 BKN037 BKN048 23/17 A3006 RMK AO2
KEKY 241856Z AUTO 18007KT 10SM BKN025 BKN035 OVC049 23/18 A3007 RMK AO2 SLP193 T02330178
KEKY 241756Z AUTO 20006KT 10SM BKN021 OVC025 22/18 A3012 RMK AO2 SLP209 60000 T02220178 10222 20183 58021
KEKY 241656Z AUTO 18009KT 130V210 10SM OVC017 21/18 A3015 RMK AO2 SLP221 T02110178
KEKY 241615Z AUTO 18008G15KT 10SM OVC015 21/18 A3016 RMK AO2
KEKY 241556Z AUTO VRB05KT 1 1/2SM HZ OVC015 21/18 A3017 RMK AO2 RAB1457E55 SLP229 P0000 T02060178
KEKY 241535Z AUTO 20006KT 10SM -RA OVC015 20/18 A3018 RMK AO2 RAB1457 P0000
KEKY 241456Z AUTO 21008KT 180V240 10SM OVC013 21/18 A3018 RMK AO2 SLP232 T02060178 50007
KEKY 241454Z AUTO 21007KT 10SM OVC011 21/18 A3018 RMK AO2
KEKY 241356Z AUTO 19006KT 10SM OVC007 19/18 A3016 RMK AO2 SLP226 T01890178
KEKY 241256Z AUTO VRB05KT 10SM OVC009 18/18 A3016 RMK AO2 SLP225 T01830178
KEKY 241236Z AUTO 16005KT 10SM OVC009 18/17 A3016 RMK AO2
KEKY 241156Z AUTO 15005KT 10SM OVC013 18/17 A3015 RMK AO2 SLP224 T01830172 10200 20183 55002
KEKY 241144Z AUTO 16005KT 10SM BKN013 OVC080 18/17 A3016 RMK AO2
KEKY 241056Z AUTO VRB04KT 10SM FEW055 SCT110 18/17 A3015 RMK AO2 SLP221 T01830172
KEKY 240956Z AUTO 18005KT 10SM BKN080 19/17 A3014 RMK AO2 SLP217 T01890172
KEKY 240856Z AUTO 18006KT 10SM FEW060 OVC075 19/18 A3016 RMK AO2 SLP224 T01940178 58013
KEKY 240756Z AUTO 17006KT 10SM OVC095 19/18 A3018 RMK AO2 SLP231 T01940178
KEKY 240656Z AUTO 18006KT 10SM OVC110 19/18 A3019 RMK AO2 SLP235 T01940178
KEKY 240556Z AUTO 17006KT 10SM BKN110 20/17 A3020 RMK AO2 SLP236 T02000172 10222 20189 402560161 58009